Spirit — WDC2731 — position and weather

sailwx.info

Track history (hours):
 
Tides and Currents Weather Stations Pressure Air Temp Water Temp Dewpoint Dewpoint Depression Visibility Wind Speed Wind Dir Waves Ship Positions

Spirit

Owner: Kirby Inland Marine, LP, Houston, TX. More information available from US FCC via Universal Licensing System and Coast Guard Vessel Documentation Center.

Last reported at 2018-Jun-20 04:59 UTC. Time now 2018-Jun-20 05:05 UTC.
Position N 29°50' W 093°58'.

Length 81 m; draft 2.6 m.

Type: . MMSI: 366996910.

Date/timePositionNaut miles runAvg speedWind from/ knotsBaromVisibWave heightAir tempDewpointWater temp
2018-Jun-20 04:59N 29°50' W 093°58'0 0.0
2018-Jun-20 04:29N 29°50' W 093°58'0 0.0
2018-Jun-20 03:59N 29°50' W 093°58'0 0.0
2018-Jun-20 03:29N 29°50' W 093°58'0 0.0
2018-Jun-20 02:59N 29°50' W 093°58'0 0.0
2018-Jun-20 02:29N 29°50' W 093°58'0 0.0
2018-Jun-20 01:59N 29°50' W 093°58'0 0.0
2018-Jun-20 01:29N 29°50' W 093°58'0 0.0
2018-Jun-20 00:59N 29°50' W 093°58'0 0.0
2018-Jun-20 00:29N 29°50' W 093°58'0 0.0
2018-Jun-20 00:00N 29°50' W 093°58'0 0.0
2018-Jun-19 23:30N 29°50' W 093°58'0 0.0
2018-Jun-19 23:00N 29°50' W 093°58'0 0.3
2018-Jun-19 22:30N 29°50' W 093°58'0 0.4
2018-Jun-19 21:58N 29°50' W 093°57'0 0.0
2018-Jun-19 21:28N 29°50' W 093°57'0 0.1
2018-Jun-19 20:58N 29°50' W 093°57'0 0.2
2018-Jun-19 20:31N 29°50' W 093°57'1 1.5
2018-Jun-19 20:00N 29°51' W 093°57'4 7.6
2018-Jun-19 19:30N 29°54' W 093°54'4 7.7
2018-Jun-19 19:00N 29°57' W 093°52'2 3.2
2018-Jun-19 18:27N 29°58' W 093°51'0 0.0
2018-Jun-19 18:00N 29°58' W 093°51'0 0.0
2018-Jun-19 17:31N 29°58' W 093°51'0 0.0
2018-Jun-19 17:00N 29°58' W 093°51'0 0.0
2018-Jun-19 16:30N 29°58' W 093°51'0 0.0
2018-Jun-19 16:00N 29°58' W 093°51'0 0.0
2018-Jun-19 15:30N 29°58' W 093°51'0 0.0
2018-Jun-19 15:00N 29°58' W 093°51'0 0.0
2018-Jun-19 14:27N 29°58' W 093°51'0 0.0
2018-Jun-19 14:00N 29°58' W 093°51'0 0.0
2018-Jun-19 13:30N 29°58' W 093°51'0 0.0
2018-Jun-19 12:57N 29°58' W 093°51'0 0.0
2018-Jun-19 12:30N 29°58' W 093°51'0 0.0
2018-Jun-19 11:54N 29°58' W 093°51'0 0.0
2018-Jun-19 11:30N 29°58' W 093°51'0 0.0
2018-Jun-19 11:00N 29°58' W 093°51'0 0.0
2018-Jun-19 10:30N 29°58' W 093°51'0 0.0
2018-Jun-19 10:00N 29°58' W 093°51'0 0.0
2018-Jun-19 09:30N 29°58' W 093°51'0 0.2
2018-Jun-19 08:44N 29°58' W 093°51'0 0.6
2018-Jun-19 08:28N 29°58' W 093°51'0 0.0
2018-Jun-19 07:58N 29°58' W 093°51'0 0.0
2018-Jun-19 07:28N 29°58' W 093°51'0 0.0
2018-Jun-19 06:55N 29°58' W 093°51'0 0.0
2018-Jun-19 06:28N 29°58' W 093°51'0 0.0
2018-Jun-19 05:58N 29°58' W 093°51'0 0.1
2018-Jun-19 05:28N 29°58' W 093°51'0 0.0
2018-Jun-19 04:58N 29°58' W 093°51'0 0.0
2018-Jun-19 04:28N 29°58' W 093°51'0 0.0
2018-Jun-19 03:58N 29°58' W 093°51'0 0.0
2018-Jun-19 03:28N 29°58' W 093°51'0 0.0
2018-Jun-19 02:58N 29°58' W 093°51'0 0.0
2018-Jun-19 02:28N 29°58' W 093°51'0 0.2
2018-Jun-19 02:00N 29°58' W 093°51'3 5.3
2018-Jun-19 01:30N 29°59' W 093°48'4 7.2
2018-Jun-19 01:00N 30°01' W 093°45'2 4.1
2018-Jun-19 00:30N 30°03' W 093°44'2 3.6
2018-Jun-19 00:00N 30°02' W 093°44'3 7.0
2018-Jun-18 23:30N 29°59' W 093°48'3 5.4
2018-Jun-18 22:58N 29°58' W 093°51'0 0.0
2018-Jun-18 22:28N 29°58' W 093°51'0 0.0
2018-Jun-18 21:58N 29°58' W 093°51'0 0.0
2018-Jun-18 21:28N 29°58' W 093°51'0 0.3
2018-Jun-18 20:57N 29°58' W 093°51'0 0.3
2018-Jun-18 20:29N 29°58' W 093°51'0 0.0
2018-Jun-18 19:59N 29°58' W 093°51'0 0.0
2018-Jun-18 19:29N 29°58' W 093°51'0 0.0
2018-Jun-18 18:59N 29°58' W 093°51'0 0.0
2018-Jun-18 18:30N 29°58' W 093°51'0 0.0
2018-Jun-18 18:00N 29°58' W 093°51'0 0.0
2018-Jun-18 17:30N 29°58' W 093°51'0 0.0
2018-Jun-18 16:50N 29°58' W 093°51'0 0.0
2018-Jun-18 16:30N 29°58' W 093°51'0 0.0
2018-Jun-18 16:00N 29°58' W 093°51'0 0.5
2018-Jun-18 15:30N 29°58' W 093°50'3 5.8
2018-Jun-18 15:00N 29°60' W 093°47'0 0.5
2018-Jun-18 14:30N 29°60' W 093°47'2 4.8
2018-Jun-18 14:00N 29°59' W 093°50'1 2.3
2018-Jun-18 13:30N 29°58' W 093°51'0 0.1
2018-Jun-18 13:00N 29°58' W 093°51'0 0.0
2018-Jun-18 12:30N 29°58' W 093°51'1 0.2
2018-Jun-18 09:03N 29°58' W 093°52'0 0.0
2018-Jun-18 09:00N 29°58' W 093°52'0 0.0
2018-Jun-18 08:30N 29°58' W 093°52'0 0.0
2018-Jun-18 08:00N 29°58' W 093°52'0 0.0
2018-Jun-18 07:30N 29°58' W 093°52'0 0.0
2018-Jun-18 07:00N 29°58' W 093°52'0 0.0
2018-Jun-18 06:30N 29°58' W 093°52'0 0.0
2018-Jun-18 06:00N 29°58' W 093°52'0 0.0
2018-Jun-18 05:30N 29°58' W 093°52'0 0.0
2018-Jun-18 05:00N 29°58' W 093°52'0 0.0
2018-Jun-18 04:30N 29°58' W 093°52'0 0.0
2018-Jun-18 04:00N 29°58' W 093°52'0 0.0
2018-Jun-18 03:30N 29°58' W 093°52'0 0.0
2018-Jun-18 03:00N 29°58' W 093°52'0 0.0
2018-Jun-18 02:30N 29°58' W 093°52'0 0.0
2018-Jun-18 02:00N 29°58' W 093°52'0 0.0
2018-Jun-18 01:30N 29°58' W 093°52'2 4.7
2018-Jun-18 01:00N 29°59' W 093°49'3 6.4
2018-Jun-18 00:30N 30°01' W 093°46'3 6.3
2018-Jun-17 23:59N 30°03' W 093°43'2 4.3
2018-Jun-17 23:30N 30°05' W 093°44'0 0.1
2018-Jun-17 22:59N 30°05' W 093°44'0 0.0
2018-Jun-17 22:26N 30°05' W 093°44'0 0.0
2018-Jun-17 21:59N 30°05' W 093°44'0 0.1
2018-Jun-17 21:30N 30°05' W 093°44'2 4.4
2018-Jun-17 21:00N 30°03' W 093°44'0 0.3
2018-Jun-17 20:29N 30°03' W 093°44'3 6.1
2018-Jun-17 20:00N 30°01' W 093°46'3 6.4
2018-Jun-17 19:30N 29°59' W 093°49'2 3.5
2018-Jun-17 19:00N 29°58' W 093°51'0 0.2
2018-Jun-17 18:30N 29°58' W 093°51'0 0.0
2018-Jun-17 08:33N 29°58' W 093°51'0 0.2
2018-Jun-17 08:30N 29°58' W 093°51'3 6.6
2018-Jun-17 08:00N 29°59' W 093°54'0 0.9
2018-Jun-17 07:30N 29°60' W 093°55'2 3.5
2018-Jun-17 06:59N 29°59' W 093°53'2 4.1
2018-Jun-17 06:30N 29°57' W 093°52'3 5.6
2018-Jun-17 06:00N 29°55' W 093°53'3 5.6
2018-Jun-17 05:30N 29°53' W 093°55'3 5.7
2018-Jun-17 05:00N 29°50' W 093°57'1 1.7
2018-Jun-17 04:30N 29°50' W 093°58'0 0.0
2018-Jun-17 04:00N 29°50' W 093°58'1 3.0
2018-Jun-17 03:31N 29°51' W 093°57'4 7.7
2018-Jun-17 03:00N 29°54' W 093°54'4 7.5
2018-Jun-17 02:30N 29°57' W 093°52'1 2.8
2018-Jun-17 01:59N 29°58' W 093°51'0 0.0
2018-Jun-17 01:26N 29°58' W 093°51'0 0.0
2018-Jun-17 00:59N 29°58' W 093°51'0 0.0
2018-Jun-17 00:30N 29°58' W 093°51'0 0.0
2018-Jun-17 00:00N 29°58' W 093°51'0 0.0
2018-Jun-16 23:30N 29°58' W 093°51'0 0.0
2018-Jun-16 22:57N 29°58' W 093°51'0 0.0
2018-Jun-16 22:30N 29°58' W 093°51'0 0.0
2018-Jun-16 22:00N 29°58' W 093°51'0 0.0
2018-Jun-16 21:30N 29°58' W 093°51'0 0.0
2018-Jun-16 21:00N 29°58' W 093°51'0 0.0
2018-Jun-16 20:30N 29°58' W 093°51'2 4.7
2018-Jun-16 20:01N 29°59' W 093°53'1 2.5
2018-Jun-16 19:30N 29°60' W 093°55'0 0.0
2018-Jun-16 19:00N 29°60' W 093°55'0 0.0
2018-Jun-16 18:30N 29°60' W 093°55'0 0.0
2018-Jun-16 18:00N 29°60' W 093°55'0 0.0
2018-Jun-16 17:30N 29°60' W 093°55'0 0.0
2018-Jun-16 17:00N 29°60' W 093°55'0 0.0
2018-Jun-16 16:27N 29°60' W 093°55'0 0.0
2018-Jun-16 16:00N 29°60' W 093°55'0 0.0
2018-Jun-16 15:30N 29°60' W 093°55'0 0.0
2018-Jun-16 15:00N 29°60' W 093°55'2 3.2
2018-Jun-16 14:30N 29°59' W 093°53'3 6.1
2018-Jun-16 14:00N 29°59' W 093°50'4 7.2
2018-Jun-16 13:30N 30°00' W 093°46'3 7.0
2018-Jun-16 13:00N 30°03' W 093°43'2 3.7
2018-Jun-16 12:29N 30°05' W 093°44'0 0.0
2018-Jun-16 12:00N 30°05' W 093°44'2 3.8
2018-Jun-16 11:30N 30°03' W 093°43'3 6.5
2018-Jun-16 11:00N 30°01' W 093°46'3 6.5
2018-Jun-16 10:30N 29°59' W 093°49'2 1.0
2018-Jun-16 08:41N 29°58' W 093°51'0 0.8
2018-Jun-16 08:30N 29°58' W 093°51'3 6.9
2018-Jun-16 08:00N 29°60' W 093°55'0 0.3
2018-Jun-16 07:31N 29°59' W 093°55'3 5.3
2018-Jun-16 07:01N 29°59' W 093°52'3 5.3
2018-Jun-16 06:30N 29°56' W 093°52'2 5.0
2018-Jun-16 06:01N 29°54' W 093°54'2 4.7
2018-Jun-16 05:31N 29°52' W 093°56'2 4.6
2018-Jun-16 05:01N 29°50' W 093°57'1 1.8
2018-Jun-16 04:30N 29°51' W 093°58'0 0.5
2018-Jun-16 04:00N 29°51' W 093°58'0 0.0
2018-Jun-16 03:30N 29°51' W 093°58'0 0.0
2018-Jun-16 03:00N 29°51' W 093°58'0 0.0
2018-Jun-16 02:30N 29°51' W 093°58'0 0.0
2018-Jun-16 02:00N 29°51' W 093°58'0 0.0
2018-Jun-16 01:30N 29°51' W 093°58'0 0.0
2018-Jun-16 01:00N 29°51' W 093°58'0 0.0
2018-Jun-16 00:28N 29°51' W 093°58'0 0.0
2018-Jun-15 23:58N 29°51' W 093°58'0 0.0
2018-Jun-15 23:28N 29°51' W 093°58'0 0.0
2018-Jun-15 22:58N 29°51' W 093°58'0 0.0
2018-Jun-15 22:28N 29°51' W 093°58'0 0.0
2018-Jun-15 21:58N 29°51' W 093°58'0 0.0
2018-Jun-15 21:28N 29°51' W 093°58'0 0.0
2018-Jun-15 20:58N 29°51' W 093°58'0 0.0
2018-Jun-15 20:28N 29°51' W 093°58'0 0.0
2018-Jun-15 19:58N 29°51' W 093°58'0 0.0
2018-Jun-15 19:28N 29°51' W 093°58'0 0.0
2018-Jun-15 18:58N 29°51' W 093°58'0 0.0
2018-Jun-15 18:28N 29°51' W 093°58'0 0.0
2018-Jun-15 17:58N 29°51' W 093°58'0 0.0
2018-Jun-15 17:28N 29°51' W 093°58'0 0.0
2018-Jun-15 16:58N 29°51' W 093°58'0 0.0
2018-Jun-15 16:28N 29°51' W 093°58'0 0.0
2018-Jun-15 15:58N 29°51' W 093°58'0 0.0
2018-Jun-15 15:28N 29°51' W 093°58'0 0.0
2018-Jun-15 14:58N 29°51' W 093°58'0 0.0
2018-Jun-15 14:30N 29°51' W 093°58'1 2.9
2018-Jun-15 14:00N 29°50' W 093°58'3 5.2
2018-Jun-15 13:30N 29°52' W 093°56'3 5.5
2018-Jun-15 13:00N 29°54' W 093°54'3 5.5
2018-Jun-15 12:30N 29°56' W 093°52'3 5.3
2018-Jun-15 12:00N 29°59' W 093°52'2 4.7
2018-Jun-15 11:30N 29°60' W 093°55'0 0.4
2018-Jun-15 11:00N 29°60' W 093°55'0 0.0
2018-Jun-15 10:30N 29°60' W 093°55'0 0.1
2018-Jun-15 10:00N 29°60' W 093°55'3 2.7
2018-Jun-15 08:53N 29°58' W 093°52'2 4.1
2018-Jun-15 08:30N 29°59' W 093°53'2 3.2
2018-Jun-15 08:00N 29°60' W 093°55'0 0.0
2018-Jun-15 07:30N 29°60' W 093°55'0 0.0
2018-Jun-15 07:00N 29°60' W 093°55'0 0.0
2018-Jun-15 06:24N 29°60' W 093°55'0 0.0
2018-Jun-15 06:00N 29°60' W 093°55'0 0.0
2018-Jun-15 05:30N 29°60' W 093°55'0 0.0
2018-Jun-15 05:01N 29°60' W 093°55'0 0.3
2018-Jun-15 04:31N 29°60' W 093°55'0 0.3
2018-Jun-15 04:00N 29°60' W 093°55'0 0.7
2018-Jun-15 03:30N 29°59' W 093°54'3 6.0
2018-Jun-15 03:00N 29°58' W 093°51'0 0.9
2018-Jun-15 02:30N 29°58' W 093°51'1 1.9
2018-Jun-15 02:01N 29°59' W 093°50'4 7.6
2018-Jun-15 01:30N 30°00' W 093°46'3 6.3
2018-Jun-15 01:00N 30°03' W 093°44'0 0.4
2018-Jun-15 00:30N 30°03' W 093°44'1 2.0
2018-Jun-14 23:57N 30°02' W 093°44'3 7.6
2018-Jun-14 23:30N 29°60' W 093°47'4 7.6
2018-Jun-14 23:00N 29°58' W 093°51'0 0.6
2018-Jun-14 22:30N 29°58' W 093°51'1 1.6
2018-Jun-14 22:00N 29°58' W 093°52'1 2.2
2018-Jun-14 21:31N 29°58' W 093°51'1 2.3
2018-Jun-14 21:00N 29°59' W 093°50'3 6.7
2018-Jun-14 20:30N 30°00' W 093°46'3 6.4
2018-Jun-14 20:00N 30°03' W 093°44'2 4.5
2018-Jun-14 19:30N 30°05' W 093°44'0 0.9
2018-Jun-14 19:01N 30°05' W 093°43'0 0.9
2018-Jun-14 18:30N 30°06' W 093°43'1 1.2
2018-Jun-14 17:59N 30°05' W 093°43'2 4.9
2018-Jun-14 17:31N 30°03' W 093°44'3 5.5
2018-Jun-14 17:00N 30°00' W 093°46'3 5.9
2018-Jun-14 16:30N 29°59' W 093°49'2 3.6
2018-Jun-14 15:58N 29°58' W 093°51'0 0.0
2018-Jun-14 15:28N 29°58' W 093°51'0 0.2
2018-Jun-14 15:00N 29°58' W 093°51'0 0.1
2018-Jun-14 14:30N 29°58' W 093°51'0 0.2
2018-Jun-14 14:00N 29°58' W 093°51'0 0.1
2018-Jun-14 13:30N 29°58' W 093°51'0 0.0
2018-Jun-14 13:00N 29°58' W 093°51'0 0.0
2018-Jun-14 12:30N 29°58' W 093°51'0 0.0
2018-Jun-14 12:00N 29°58' W 093°51'0 0.0
2018-Jun-14 11:30N 29°58' W 093°51'0 0.0
2018-Jun-14 11:00N 29°58' W 093°51'0 0.0
2018-Jun-14 10:30N 29°58' W 093°51'0 0.0
2018-Jun-14 09:59N 29°58' W 093°51'0 0.0
2018-Jun-14 09:29N 29°58' W 093°51'0 0.2
2018-Jun-14 09:00N 29°58' W 093°51'0 0.2
2018-Jun-14 08:29N 29°58' W 093°51'0 0.0
2018-Jun-14 07:59N 29°58' W 093°51'0 0.0
2018-Jun-14 07:26N 29°58' W 093°51'0 0.0
2018-Jun-14 06:59N 29°58' W 093°51'0 0.0
2018-Jun-14 06:29N 29°58' W 093°51'0 0.0
2018-Jun-14 05:59N 29°58' W 093°51'0 0.0
2018-Jun-14 05:29N 29°58' W 093°51'0 0.0
2018-Jun-14 04:59N 29°58' W 093°51'0 0.0
2018-Jun-14 04:26N 29°58' W 093°51'2 5.2
2018-Jun-14 04:00N 29°59' W 093°48'4 7.8
2018-Jun-14 03:29N 30°01' W 093°44'2 4.0
2018-Jun-14 03:00N 30°03' W 093°44'1 1.3
2018-Jun-14 02:30N 30°03' W 093°44'2 4.1
2018-Jun-14 02:00N 30°01' W 093°45'3 6.4
2018-Jun-14 01:30N 29°59' W 093°48'3 6.3
2018-Jun-14 01:00N 29°59' W 093°52'3 6.9
2018-Jun-14 00:30N 29°60' W 093°55'0 0.6
2018-Jun-14 00:00N 29°60' W 093°55'1 1.4
2018-Jun-13 23:30N 29°59' W 093°56'0 0.0
2018-Jun-13 23:00N 29°59' W 093°56'0 0.0
2018-Jun-13 22:30N 29°59' W 093°56'3 5.2
2018-Jun-13 22:00N 29°59' W 093°53'2 3.5
2018-Jun-13 21:29N 29°58' W 093°51'0 0.3
2018-Jun-13 21:00N 29°58' W 093°51'1 1.9
2018-Jun-13 20:30N 29°58' W 093°52'0 0.1
2018-Jun-13 20:00N 29°58' W 093°52'2 3.3
2018-Jun-13 19:30N 29°59' W 093°53'1 2.3
2018-Jun-13 19:00N 29°58' W 093°51'0 0.5
2018-Jun-13 18:30N 29°58' W 093°52'0 0.7
2018-Jun-13 18:00N 29°58' W 093°51'0 0.5
2018-Jun-13 17:30N 29°58' W 093°51'3 5.0
2018-Jun-13 17:00N 29°59' W 093°54'3 5.1
2018-Jun-13 16:30N 29°60' W 093°57'0 0.0
2018-Jun-13 16:00N 29°60' W 093°57'2 5.0
2018-Jun-13 15:30N 29°59' W 093°54'2 4.6
2018-Jun-13 14:58N 29°58' W 093°51'0 0.4
2018-Jun-13 14:30N 29°58' W 093°51'0 0.1
2018-Jun-13 13:59N 29°58' W 093°52'0 0.1
2018-Jun-13 13:30N 29°58' W 093°52'1 2.1
2018-Jun-13 12:58N 29°58' W 093°51'0 0.0
2018-Jun-13 12:27N 29°58' W 093°51'2 4.8
2018-Jun-13 12:00N 29°59' W 093°53'2 4.9
2018-Jun-13 11:30N 29°59' W 093°56'1 1.4
2018-Jun-13 11:00N 29°60' W 093°55'0 0.5
2018-Jun-13 10:30N 29°60' W 093°55'3 6.9
2018-Jun-13 10:00N 29°58' W 093°51'0 0.6
2018-Jun-13 09:20N 29°58' W 093°51'0 0.9
2018-Jun-13 08:59N 29°58' W 093°51'0 0.1
2018-Jun-13 08:30N 29°58' W 093°51'2 4.1
2018-Jun-13 08:00N 29°59' W 093°53'2 4.5
2018-Jun-13 07:29N 29°59' W 093°56'0 0.1
2018-Jun-13 06:59N 29°59' W 093°56'0 0.0
2018-Jun-13 06:29N 29°59' W 093°56'0 0.0
2018-Jun-13 05:59N 29°59' W 093°56'0 0.0
2018-Jun-13 05:29N 29°59' W 093°56'0 0.0
2018-Jun-13 04:59N 29°59' W 093°56'0 0.0
2018-Jun-13 04:29N 29°59' W 093°56'0 0.0
2018-Jun-13 03:59N 29°59' W 093°56'0 0.0
2018-Jun-13 03:29N 29°59' W 093°56'0 0.0
2018-Jun-13 02:59N 29°59' W 093°56'0 0.0
2018-Jun-13 02:29N 29°59' W 093°56'0 0.0
2018-Jun-13 01:59N 29°59' W 093°56'0 0.0
2018-Jun-13 01:29N 29°59' W 093°56'0 0.0
2018-Jun-13 00:59N 29°59' W 093°56'0 0.0
2018-Jun-13 00:29N 29°59' W 093°56'0 0.0
2018-Jun-12 23:59N 29°59' W 093°56'0 0.0
2018-Jun-12 23:29N 29°59' W 093°56'0 0.0
2018-Jun-12 22:59N 29°59' W 093°56'0 0.0
2018-Jun-12 22:29N 29°59' W 093°56'0 0.0
2018-Jun-12 21:59N 29°59' W 093°56'0 0.0
2018-Jun-12 21:29N 29°59' W 093°56'0 0.0
2018-Jun-12 20:59N 29°59' W 093°56'0 0.0
2018-Jun-12 20:29N 29°59' W 093°56'0 0.0
2018-Jun-12 19:59N 29°59' W 093°56'0 0.0
2018-Jun-12 19:29N 29°59' W 093°56'0 0.0
2018-Jun-12 18:59N 29°59' W 093°56'0 0.0
2018-Jun-12 18:29N 29°59' W 093°56'0 0.0
2018-Jun-12 17:56N 29°59' W 093°56'0 0.0
2018-Jun-12 17:29N 29°59' W 093°56'0 0.0
2018-Jun-12 16:59N 29°59' W 093°56'0 0.0
2018-Jun-12 16:29N 29°59' W 093°56'0 0.0
2018-Jun-12 15:59N 29°59' W 093°56'0 0.0
2018-Jun-12 15:29N 29°59' W 093°56'0 0.0
2018-Jun-12 14:59N 29°59' W 093°56'0 0.0
2018-Jun-12 14:29N 29°59' W 093°56'0 0.0
2018-Jun-12 13:58N 29°59' W 093°56'0 0.0
2018-Jun-12 13:28N 29°59' W 093°56'0 0.0
2018-Jun-12 12:58N 29°59' W 093°56'0 0.0
2018-Jun-12 12:28N 29°59' W 093°56'0 0.0
2018-Jun-12 11:58N 29°59' W 093°56'0 0.0
2018-Jun-12 11:28N 29°59' W 093°56'0 0.3
2018-Jun-12 11:00N 29°59' W 093°56'3 6.5
2018-Jun-12 10:30N 29°59' W 093°52'1 2.6
2018-Jun-12 10:00N 29°58' W 093°51'0 0.0
2018-Jun-12 09:30N 29°58' W 093°51'0 0.0
2018-Jun-12 08:56N 29°58' W 093°51'0 0.2
2018-Jun-12 08:28N 29°58' W 093°51'0 0.1
2018-Jun-12 08:00N 29°58' W 093°51'0 0.5
2018-Jun-12 07:30N 29°58' W 093°51'0 0.0
2018-Jun-12 07:00N 29°58' W 093°51'3 5.3
2018-Jun-12 06:30N 29°59' W 093°54'2 3.8
2018-Jun-12 06:00N 29°59' W 093°56'1 1.7
2018-Jun-12 05:30N 29°59' W 093°55'3 6.8
2018-Jun-12 05:00N 29°58' W 093°51'0 0.8
2018-Jun-12 04:31N 29°58' W 093°51'0 0.1
2018-Jun-12 03:59N 29°58' W 093°51'2 4.7
2018-Jun-12 03:30N 29°59' W 093°53'4 7.6
2018-Jun-12 03:00N 30°00' W 093°57'3 6.8
2018-Jun-12 02:30N 30°01' W 094°01'0 0.7
2018-Jun-12 02:00N 30°01' W 094°02'2 3.6
2018-Jun-12 01:30N 30°01' W 093°60'3 5.5
2018-Jun-12 01:00N 29°60' W 093°57'3 6.3
2018-Jun-12 00:30N 29°59' W 093°53'3 5.1
2018-Jun-12 00:00N 29°59' W 093°50'3 6.4
2018-Jun-11 23:30N 29°60' W 093°47'3 6.1
2018-Jun-11 23:00N 30°02' W 093°44'3 5.5
2018-Jun-11 22:29N 30°05' W 093°43'1 1.5
2018-Jun-11 21:59N 30°05' W 093°44'0 0.0
2018-Jun-11 21:30N 30°05' W 093°44'0 0.0
2018-Jun-11 21:00N 30°05' W 093°44'0 0.0
2018-Jun-11 20:26N 30°05' W 093°44'0 0.0
2018-Jun-11 20:00N 30°05' W 093°44'0 0.0
2018-Jun-11 19:30N 30°05' W 093°44'0 0.0
2018-Jun-11 19:00N 30°05' W 093°44'0 0.0
2018-Jun-11 18:30N 30°05' W 093°44'0 0.0
2018-Jun-11 18:00N 30°05' W 093°44'0 0.0
2018-Jun-11 17:29N 30°05' W 093°44'0 0.0
2018-Jun-11 17:00N 30°05' W 093°44'0 0.0
2018-Jun-11 16:28N 30°05' W 093°44'0 0.2
2018-Jun-11 15:59N 30°05' W 093°44'2 4.6
2018-Jun-11 15:27N 30°03' W 093°44'3 5.7
2018-Jun-11 15:00N 30°00' W 093°46'3 6.0
2018-Jun-11 14:30N 29°59' W 093°49'2 3.5
2018-Jun-11 14:00N 29°58' W 093°51'2 3.8
2018-Jun-11 13:30N 29°59' W 093°53'3 5.0
2018-Jun-11 13:00N 29°59' W 093°56'2 4.9
2018-Jun-11 12:30N 30°01' W 093°58'3 6.1
2018-Jun-11 12:00N 30°01' W 094°01'3 5.5
2018-Jun-11 11:30N 30°04' W 094°03'2 4.1
2018-Jun-11 11:00N 30°05' W 094°05'0 0.0
2018-Jun-11 10:30N 30°05' W 094°05'0 0.0
2018-Jun-11 10:00N 30°05' W 094°05'0 0.0
2018-Jun-11 09:30N 30°05' W 094°05'0 0.0
2018-Jun-11 09:00N 30°05' W 094°05'0 0.0
2018-Jun-11 08:30N 30°05' W 094°05'0 0.0
2018-Jun-11 08:00N 30°05' W 094°05'0 0.0
2018-Jun-11 07:30N 30°05' W 094°05'0 0.0
2018-Jun-11 07:00N 30°05' W 094°05'0 0.0
2018-Jun-11 06:30N 30°05' W 094°05'0 0.0
2018-Jun-11 06:00N 30°05' W 094°05'0 0.0
2018-Jun-11 05:30N 30°05' W 094°05'0 0.0
2018-Jun-11 05:00N 30°05' W 094°05'0 0.0
2018-Jun-11 04:30N 30°05' W 094°05'0 0.0
2018-Jun-11 04:00N 30°05' W 094°05'0 0.0
2018-Jun-11 03:30N 30°05' W 094°05'0 0.0
2018-Jun-11 03:00N 30°05' W 094°05'0 0.0
2018-Jun-11 02:30N 30°05' W 094°05'0 0.0
2018-Jun-11 02:00N 30°05' W 094°05'0 0.0
2018-Jun-11 01:30N 30°05' W 094°05'0 0.0
2018-Jun-11 01:00N 30°05' W 094°05'0 0.0
2018-Jun-11 00:30N 30°05' W 094°05'0 0.0
2018-Jun-11 00:00N 30°05' W 094°05'0 0.0
2018-Jun-10 23:30N 30°05' W 094°05'0 0.0
2018-Jun-10 23:00N 30°05' W 094°05'0 0.0
2018-Jun-10 22:30N 30°05' W 094°05'0 0.0
2018-Jun-10 22:00N 30°05' W 094°05'0 0.0
2018-Jun-10 21:30N 30°05' W 094°05'0 0.0
2018-Jun-10 21:00N 30°05' W 094°05'0 0.0
2018-Jun-10 20:30N 30°05' W 094°05'0 0.0
2018-Jun-10 20:00N 30°05' W 094°05'0 0.0
2018-Jun-10 19:30N 30°05' W 094°05'0 0.0
2018-Jun-10 19:00N 30°05' W 094°05'0 0.0
2018-Jun-10 18:30N 30°05' W 094°05'0 0.2
2018-Jun-10 18:00N 30°05' W 094°05'3 5.8
2018-Jun-10 17:30N 30°03' W 094°02'3 5.2
2018-Jun-10 17:00N 30°01' W 094°00'3 5.4
2018-Jun-10 16:30N 30°00' W 093°57'3 5.8
2018-Jun-10 16:00N 29°59' W 093°54'3 5.5
2018-Jun-10 15:30N 29°58' W 093°51'0 0.7
2018-Jun-10 15:00N 29°58' W 093°51'3 5.5
2018-Jun-10 14:30N 29°56' W 093°52'6 6.2
2018-Jun-10 13:30N 29°51' W 093°57'3 5.1
2018-Jun-10 13:00N 29°49' W 093°59'0 0.1
2018-Jun-10 12:30N 29°49' W 093°59'0 0.0
2018-Jun-10 12:00N 29°49' W 093°59'0 0.0
2018-Jun-10 11:30N 29°49' W 093°59'0 0.0
2018-Jun-10 11:00N 29°49' W 093°59'0 0.0
2018-Jun-10 10:30N 29°49' W 093°59'0 0.0
2018-Jun-10 10:00N 29°49' W 093°59'1 1.3
2018-Jun-10 09:30N 29°49' W 093°60'3 5.6
2018-Jun-10 09:00N 29°47' W 094°02'3 5.4
2018-Jun-10 08:30N 29°45' W 094°04'3 5.4
2018-Jun-10 08:00N 29°43' W 094°07'3 5.4
2018-Jun-10 07:30N 29°42' W 094°09'3 5.4
2018-Jun-10 07:00N 29°41' W 094°12'3 5.7
2018-Jun-10 06:30N 29°40' W 094°15'3 5.8
2018-Jun-10 06:00N 29°38' W 094°18'2 4.6
2018-Jun-10 05:30N 29°37' W 094°20'3 5.8
2018-Jun-10 05:00N 29°36' W 094°23'  
Track history (hours):
 
Tides and Currents Weather Stations Pressure Air Temp Water Temp Dewpoint Dewpoint Depression Visibility Wind Speed Wind Dir Waves Ship Positions

Spirit

Owner: Kirby Inland Marine, LP, Houston, TX. More information available from US FCC via Universal Licensing System and Coast Guard Vessel Documentation Center.

Last reported at 2018-Jun-20 04:59 UTC. Time now 2018-Jun-20 05:05 UTC.
Position N 29°50' W 093°58'.

Length 81 m; draft 2.6 m.

Type: . MMSI: 366996910.

Date/timePositionNaut miles runAvg speedWind from/ knotsBaromVisibWave heightAir tempDewpointWater temp
2018-Jun-20 04:59N 29°50' W 093°58'0 0.0
2018-Jun-20 04:29N 29°50' W 093°58'0 0.0
2018-Jun-20 03:59N 29°50' W 093°58'0 0.0
2018-Jun-20 03:29N 29°50' W 093°58'0 0.0
2018-Jun-20 02:59N 29°50' W 093°58'0 0.0
2018-Jun-20 02:29N 29°50' W 093°58'0 0.0
2018-Jun-20 01:59N 29°50' W 093°58'0 0.0
2018-Jun-20 01:29N 29°50' W 093°58'0 0.0
2018-Jun-20 00:59N 29°50' W 093°58'0 0.0
2018-Jun-20 00:29N 29°50' W 093°58'0 0.0
2018-Jun-20 00:00N 29°50' W 093°58'0 0.0
2018-Jun-19 23:30N 29°50' W 093°58'0 0.0
2018-Jun-19 23:00N 29°50' W 093°58'0 0.3
2018-Jun-19 22:30N 29°50' W 093°58'0 0.4
2018-Jun-19 21:58N 29°50' W 093°57'0 0.0
2018-Jun-19 21:28N 29°50' W 093°57'0 0.1
2018-Jun-19 20:58N 29°50' W 093°57'0 0.2
2018-Jun-19 20:31N 29°50' W 093°57'1 1.5
2018-Jun-19 20:00N 29°51' W 093°57'4 7.6
2018-Jun-19 19:30N 29°54' W 093°54'4 7.7
2018-Jun-19 19:00N 29°57' W 093°52'2 3.2
2018-Jun-19 18:27N 29°58' W 093°51'0 0.0
2018-Jun-19 18:00N 29°58' W 093°51'0 0.0
2018-Jun-19 17:31N 29°58' W 093°51'0 0.0
2018-Jun-19 17:00N 29°58' W 093°51'0 0.0
2018-Jun-19 16:30N 29°58' W 093°51'0 0.0
2018-Jun-19 16:00N 29°58' W 093°51'0 0.0
2018-Jun-19 15:30N 29°58' W 093°51'0 0.0
2018-Jun-19 15:00N 29°58' W 093°51'0 0.0
2018-Jun-19 14:27N 29°58' W 093°51'0 0.0
2018-Jun-19 14:00N 29°58' W 093°51'0 0.0
2018-Jun-19 13:30N 29°58' W 093°51'0 0.0
2018-Jun-19 12:57N 29°58' W 093°51'0 0.0
2018-Jun-19 12:30N 29°58' W 093°51'0 0.0
2018-Jun-19 11:54N 29°58' W 093°51'0 0.0
2018-Jun-19 11:30N 29°58' W 093°51'0 0.0
2018-Jun-19 11:00N 29°58' W 093°51'0 0.0
2018-Jun-19 10:30N 29°58' W 093°51'0 0.0
2018-Jun-19 10:00N 29°58' W 093°51'0 0.0
2018-Jun-19 09:30N 29°58' W 093°51'0 0.2
2018-Jun-19 08:44N 29°58' W 093°51'0 0.6
2018-Jun-19 08:28N 29°58' W 093°51'0 0.0
2018-Jun-19 07:58N 29°58' W 093°51'0 0.0
2018-Jun-19 07:28N 29°58' W 093°51'0 0.0
2018-Jun-19 06:55N 29°58' W 093°51'0 0.0
2018-Jun-19 06:28N 29°58' W 093°51'0 0.0
2018-Jun-19 05:58N 29°58' W 093°51'0 0.1
2018-Jun-19 05:28N 29°58' W 093°51'0 0.0
2018-Jun-19 04:58N 29°58' W 093°51'0 0.0
2018-Jun-19 04:28N 29°58' W 093°51'0 0.0
2018-Jun-19 03:58N 29°58' W 093°51'0 0.0
2018-Jun-19 03:28N 29°58' W 093°51'0 0.0
2018-Jun-19 02:58N 29°58' W 093°51'0 0.0
2018-Jun-19 02:28N 29°58' W 093°51'0 0.2
2018-Jun-19 02:00N 29°58' W 093°51'3 5.3
2018-Jun-19 01:30N 29°59' W 093°48'4 7.2
2018-Jun-19 01:00N 30°01' W 093°45'2 4.1
2018-Jun-19 00:30N 30°03' W 093°44'2 3.6
2018-Jun-19 00:00N 30°02' W 093°44'3 7.0
2018-Jun-18 23:30N 29°59' W 093°48'3 5.4
2018-Jun-18 22:58N 29°58' W 093°51'0 0.0
2018-Jun-18 22:28N 29°58' W 093°51'0 0.0
2018-Jun-18 21:58N 29°58' W 093°51'0 0.0
2018-Jun-18 21:28N 29°58' W 093°51'0 0.3
2018-Jun-18 20:57N 29°58' W 093°51'0 0.3
2018-Jun-18 20:29N 29°58' W 093°51'0 0.0
2018-Jun-18 19:59N 29°58' W 093°51'0 0.0
2018-Jun-18 19:29N 29°58' W 093°51'0 0.0
2018-Jun-18 18:59N 29°58' W 093°51'0 0.0
2018-Jun-18 18:30N 29°58' W 093°51'0 0.0
2018-Jun-18 18:00N 29°58' W 093°51'0 0.0
2018-Jun-18 17:30N 29°58' W 093°51'0 0.0
2018-Jun-18 16:50N 29°58' W 093°51'0 0.0
2018-Jun-18 16:30N 29°58' W 093°51'0 0.0
2018-Jun-18 16:00N 29°58' W 093°51'0 0.5
2018-Jun-18 15:30N 29°58' W 093°50'3 5.8
2018-Jun-18 15:00N 29°60' W 093°47'0 0.5
2018-Jun-18 14:30N 29°60' W 093°47'2 4.8
2018-Jun-18 14:00N 29°59' W 093°50'1 2.3
2018-Jun-18 13:30N 29°58' W 093°51'0 0.1
2018-Jun-18 13:00N 29°58' W 093°51'0 0.0
2018-Jun-18 12:30N 29°58' W 093°51'1 0.2
2018-Jun-18 09:03N 29°58' W 093°52'0 0.0
2018-Jun-18 09:00N 29°58' W 093°52'0 0.0
2018-Jun-18 08:30N 29°58' W 093°52'0 0.0
2018-Jun-18 08:00N 29°58' W 093°52'0 0.0
2018-Jun-18 07:30N 29°58' W 093°52'0 0.0
2018-Jun-18 07:00N 29°58' W 093°52'0 0.0
2018-Jun-18 06:30N 29°58' W 093°52'0 0.0
2018-Jun-18 06:00N 29°58' W 093°52'0 0.0
2018-Jun-18 05:30N 29°58' W 093°52'0 0.0
2018-Jun-18 05:00N 29°58' W 093°52'0 0.0
2018-Jun-18 04:30N 29°58' W 093°52'0 0.0
2018-Jun-18 04:00N 29°58' W 093°52'0 0.0
2018-Jun-18 03:30N 29°58' W 093°52'0 0.0
2018-Jun-18 03:00N 29°58' W 093°52'0 0.0
2018-Jun-18 02:30N 29°58' W 093°52'0 0.0
2018-Jun-18 02:00N 29°58' W 093°52'0 0.0
2018-Jun-18 01:30N 29°58' W 093°52'2 4.7
2018-Jun-18 01:00N 29°59' W 093°49'3 6.4
2018-Jun-18 00:30N 30°01' W 093°46'3 6.3
2018-Jun-17 23:59N 30°03' W 093°43'2 4.3
2018-Jun-17 23:30N 30°05' W 093°44'0 0.1
2018-Jun-17 22:59N 30°05' W 093°44'0 0.0
2018-Jun-17 22:26N 30°05' W 093°44'0 0.0
2018-Jun-17 21:59N 30°05' W 093°44'0 0.1
2018-Jun-17 21:30N 30°05' W 093°44'2 4.4
2018-Jun-17 21:00N 30°03' W 093°44'0 0.3
2018-Jun-17 20:29N 30°03' W 093°44'3 6.1
2018-Jun-17 20:00N 30°01' W 093°46'3 6.4
2018-Jun-17 19:30N 29°59' W 093°49'2 3.5
2018-Jun-17 19:00N 29°58' W 093°51'0 0.2
2018-Jun-17 18:30N 29°58' W 093°51'0 0.0
2018-Jun-17 08:33N 29°58' W 093°51'0 0.2
2018-Jun-17 08:30N 29°58' W 093°51'3 6.6
2018-Jun-17 08:00N 29°59' W 093°54'0 0.9
2018-Jun-17 07:30N 29°60' W 093°55'2 3.5
2018-Jun-17 06:59N 29°59' W 093°53'2 4.1
2018-Jun-17 06:30N 29°57' W 093°52'3 5.6
2018-Jun-17 06:00N 29°55' W 093°53'3 5.6
2018-Jun-17 05:30N 29°53' W 093°55'3 5.7
2018-Jun-17 05:00N 29°50' W 093°57'1 1.7
2018-Jun-17 04:30N 29°50' W 093°58'0 0.0
2018-Jun-17 04:00N 29°50' W 093°58'1 3.0
2018-Jun-17 03:31N 29°51' W 093°57'4 7.7
2018-Jun-17 03:00N 29°54' W 093°54'4 7.5
2018-Jun-17 02:30N 29°57' W 093°52'1 2.8
2018-Jun-17 01:59N 29°58' W 093°51'0 0.0
2018-Jun-17 01:26N 29°58' W 093°51'0 0.0
2018-Jun-17 00:59N 29°58' W 093°51'0 0.0
2018-Jun-17 00:30N 29°58' W 093°51'0 0.0
2018-Jun-17 00:00N 29°58' W 093°51'0 0.0
2018-Jun-16 23:30N 29°58' W 093°51'0 0.0
2018-Jun-16 22:57N 29°58' W 093°51'0 0.0
2018-Jun-16 22:30N 29°58' W 093°51'0 0.0
2018-Jun-16 22:00N 29°58' W 093°51'0 0.0
2018-Jun-16 21:30N 29°58' W 093°51'0 0.0
2018-Jun-16 21:00N 29°58' W 093°51'0 0.0
2018-Jun-16 20:30N 29°58' W 093°51'2 4.7
2018-Jun-16 20:01N 29°59' W 093°53'1 2.5
2018-Jun-16 19:30N 29°60' W 093°55'0 0.0
2018-Jun-16 19:00N 29°60' W 093°55'0 0.0
2018-Jun-16 18:30N 29°60' W 093°55'0 0.0
2018-Jun-16 18:00N 29°60' W 093°55'0 0.0
2018-Jun-16 17:30N 29°60' W 093°55'0 0.0
2018-Jun-16 17:00N 29°60' W 093°55'0 0.0
2018-Jun-16 16:27N 29°60' W 093°55'0 0.0
2018-Jun-16 16:00N 29°60' W 093°55'0 0.0
2018-Jun-16 15:30N 29°60' W 093°55'0 0.0
2018-Jun-16 15:00N 29°60' W 093°55'2 3.2
2018-Jun-16 14:30N 29°59' W 093°53'3 6.1
2018-Jun-16 14:00N 29°59' W 093°50'4 7.2
2018-Jun-16 13:30N 30°00' W 093°46'3 7.0
2018-Jun-16 13:00N 30°03' W 093°43'2 3.7
2018-Jun-16 12:29N 30°05' W 093°44'0 0.0
2018-Jun-16 12:00N 30°05' W 093°44'2 3.8
2018-Jun-16 11:30N 30°03' W 093°43'3 6.5
2018-Jun-16 11:00N 30°01' W 093°46'3 6.5
2018-Jun-16 10:30N 29°59' W 093°49'2 1.0
2018-Jun-16 08:41N 29°58' W 093°51'0 0.8
2018-Jun-16 08:30N 29°58' W 093°51'3 6.9
2018-Jun-16 08:00N 29°60' W 093°55'0 0.3
2018-Jun-16 07:31N 29°59' W 093°55'3 5.3
2018-Jun-16 07:01N 29°59' W 093°52'3 5.3
2018-Jun-16 06:30N 29°56' W 093°52'2 5.0
2018-Jun-16 06:01N 29°54' W 093°54'2 4.7
2018-Jun-16 05:31N 29°52' W 093°56'2 4.6
2018-Jun-16 05:01N 29°50' W 093°57'1 1.8
2018-Jun-16 04:30N 29°51' W 093°58'0 0.5
2018-Jun-16 04:00N 29°51' W 093°58'0 0.0
2018-Jun-16 03:30N 29°51' W 093°58'0 0.0
2018-Jun-16 03:00N 29°51' W 093°58'0 0.0
2018-Jun-16 02:30N 29°51' W 093°58'0 0.0
2018-Jun-16 02:00N 29°51' W 093°58'0 0.0
2018-Jun-16 01:30N 29°51' W 093°58'0 0.0
2018-Jun-16 01:00N 29°51' W 093°58'0 0.0
2018-Jun-16 00:28N 29°51' W 093°58'0 0.0
2018-Jun-15 23:58N 29°51' W 093°58'0 0.0
2018-Jun-15 23:28N 29°51' W 093°58'0 0.0
2018-Jun-15 22:58N 29°51' W 093°58'0 0.0
2018-Jun-15 22:28N 29°51' W 093°58'0 0.0
2018-Jun-15 21:58N 29°51' W 093°58'0 0.0
2018-Jun-15 21:28N 29°51' W 093°58'0 0.0
2018-Jun-15 20:58N 29°51' W 093°58'0 0.0
2018-Jun-15 20:28N 29°51' W 093°58'0 0.0
2018-Jun-15 19:58N 29°51' W 093°58'0 0.0
2018-Jun-15 19:28N 29°51' W 093°58'0 0.0
2018-Jun-15 18:58N 29°51' W 093°58'0 0.0
2018-Jun-15 18:28N 29°51' W 093°58'0 0.0
2018-Jun-15 17:58N 29°51' W 093°58'0 0.0
2018-Jun-15 17:28N 29°51' W 093°58'0 0.0
2018-Jun-15 16:58N 29°51' W 093°58'0 0.0
2018-Jun-15 16:28N 29°51' W 093°58'0 0.0
2018-Jun-15 15:58N 29°51' W 093°58'0 0.0
2018-Jun-15 15:28N 29°51' W 093°58'0 0.0
2018-Jun-15 14:58N 29°51' W 093°58'0 0.0
2018-Jun-15 14:30N 29°51' W 093°58'1 2.9
2018-Jun-15 14:00N 29°50' W 093°58'3 5.2
2018-Jun-15 13:30N 29°52' W 093°56'3 5.5
2018-Jun-15 13:00N 29°54' W 093°54'3 5.5
2018-Jun-15 12:30N 29°56' W 093°52'3 5.3
2018-Jun-15 12:00N 29°59' W 093°52'2 4.7
2018-Jun-15 11:30N 29°60' W 093°55'0 0.4
2018-Jun-15 11:00N 29°60' W 093°55'0 0.0
2018-Jun-15 10:30N 29°60' W 093°55'0 0.1
2018-Jun-15 10:00N 29°60' W 093°55'3 2.7
2018-Jun-15 08:53N 29°58' W 093°52'2 4.1
2018-Jun-15 08:30N 29°59' W 093°53'2 3.2
2018-Jun-15 08:00N 29°60' W 093°55'0 0.0
2018-Jun-15 07:30N 29°60' W 093°55'0 0.0
2018-Jun-15 07:00N 29°60' W 093°55'0 0.0
2018-Jun-15 06:24N 29°60' W 093°55'0 0.0
2018-Jun-15 06:00N 29°60' W 093°55'0 0.0
2018-Jun-15 05:30N 29°60' W 093°55'0 0.0
2018-Jun-15 05:01N 29°60' W 093°55'0 0.3
2018-Jun-15 04:31N 29°60' W 093°55'0 0.3
2018-Jun-15 04:00N 29°60' W 093°55'0 0.7
2018-Jun-15 03:30N 29°59' W 093°54'3 6.0
2018-Jun-15 03:00N 29°58' W 093°51'0 0.9
2018-Jun-15 02:30N 29°58' W 093°51'1 1.9
2018-Jun-15 02:01N 29°59' W 093°50'4 7.6
2018-Jun-15 01:30N 30°00' W 093°46'3 6.3
2018-Jun-15 01:00N 30°03' W 093°44'0 0.4
2018-Jun-15 00:30N 30°03' W 093°44'1 2.0
2018-Jun-14 23:57N 30°02' W 093°44'3 7.6
2018-Jun-14 23:30N 29°60' W 093°47'4 7.6
2018-Jun-14 23:00N 29°58' W 093°51'0 0.6
2018-Jun-14 22:30N 29°58' W 093°51'1 1.6
2018-Jun-14 22:00N 29°58' W 093°52'1 2.2
2018-Jun-14 21:31N 29°58' W 093°51'1 2.3
2018-Jun-14 21:00N 29°59' W 093°50'3 6.7
2018-Jun-14 20:30N 30°00' W 093°46'3 6.4
2018-Jun-14 20:00N 30°03' W 093°44'2 4.5
2018-Jun-14 19:30N 30°05' W 093°44'0 0.9
2018-Jun-14 19:01N 30°05' W 093°43'0 0.9
2018-Jun-14 18:30N 30°06' W 093°43'1 1.2
2018-Jun-14 17:59N 30°05' W 093°43'2 4.9
2018-Jun-14 17:31N 30°03' W 093°44'3 5.5
2018-Jun-14 17:00N 30°00' W 093°46'3 5.9
2018-Jun-14 16:30N 29°59' W 093°49'2 3.6
2018-Jun-14 15:58N 29°58' W 093°51'0 0.0
2018-Jun-14 15:28N 29°58' W 093°51'0 0.2
2018-Jun-14 15:00N 29°58' W 093°51'0 0.1
2018-Jun-14 14:30N 29°58' W 093°51'0 0.2
2018-Jun-14 14:00N 29°58' W 093°51'0 0.1
2018-Jun-14 13:30N 29°58' W 093°51'0 0.0
2018-Jun-14 13:00N 29°58' W 093°51'0 0.0
2018-Jun-14 12:30N 29°58' W 093°51'0 0.0
2018-Jun-14 12:00N 29°58' W 093°51'0 0.0
2018-Jun-14 11:30N 29°58' W 093°51'0 0.0
2018-Jun-14 11:00N 29°58' W 093°51'0 0.0
2018-Jun-14 10:30N 29°58' W 093°51'0 0.0
2018-Jun-14 09:59N 29°58' W 093°51'0 0.0
2018-Jun-14 09:29N 29°58' W 093°51'0 0.2
2018-Jun-14 09:00N 29°58' W 093°51'0 0.2
2018-Jun-14 08:29N 29°58' W 093°51'0 0.0
2018-Jun-14 07:59N 29°58' W 093°51'0 0.0
2018-Jun-14 07:26N 29°58' W 093°51'0 0.0
2018-Jun-14 06:59N 29°58' W 093°51'0 0.0
2018-Jun-14 06:29N 29°58' W 093°51'0 0.0
2018-Jun-14 05:59N 29°58' W 093°51'0 0.0
2018-Jun-14 05:29N 29°58' W 093°51'0 0.0
2018-Jun-14 04:59N 29°58' W 093°51'0 0.0
2018-Jun-14 04:26N 29°58' W 093°51'2 5.2
2018-Jun-14 04:00N 29°59' W 093°48'4 7.8
2018-Jun-14 03:29N 30°01' W 093°44'2 4.0
2018-Jun-14 03:00N 30°03' W 093°44'1 1.3
2018-Jun-14 02:30N 30°03' W 093°44'2 4.1
2018-Jun-14 02:00N 30°01' W 093°45'3 6.4
2018-Jun-14 01:30N 29°59' W 093°48'3 6.3
2018-Jun-14 01:00N 29°59' W 093°52'3 6.9
2018-Jun-14 00:30N 29°60' W 093°55'0 0.6
2018-Jun-14 00:00N 29°60' W 093°55'1 1.4
2018-Jun-13 23:30N 29°59' W 093°56'0 0.0
2018-Jun-13 23:00N 29°59' W 093°56'0 0.0
2018-Jun-13 22:30N 29°59' W 093°56'3 5.2
2018-Jun-13 22:00N 29°59' W 093°53'2 3.5
2018-Jun-13 21:29N 29°58' W 093°51'0 0.3
2018-Jun-13 21:00N 29°58' W 093°51'1 1.9
2018-Jun-13 20:30N 29°58' W 093°52'0 0.1
2018-Jun-13 20:00N 29°58' W 093°52'2 3.3
2018-Jun-13 19:30N 29°59' W 093°53'1 2.3
2018-Jun-13 19:00N 29°58' W 093°51'0 0.5
2018-Jun-13 18:30N 29°58' W 093°52'0 0.7
2018-Jun-13 18:00N 29°58' W 093°51'0 0.5
2018-Jun-13 17:30N 29°58' W 093°51'3 5.0
2018-Jun-13 17:00N 29°59' W 093°54'3 5.1
2018-Jun-13 16:30N 29°60' W 093°57'0 0.0
2018-Jun-13 16:00N 29°60' W 093°57'2 5.0
2018-Jun-13 15:30N 29°59' W 093°54'2 4.6
2018-Jun-13 14:58N 29°58' W 093°51'0 0.4
2018-Jun-13 14:30N 29°58' W 093°51'0 0.1
2018-Jun-13 13:59N 29°58' W 093°52'0 0.1
2018-Jun-13 13:30N 29°58' W 093°52'1 2.1
2018-Jun-13 12:58N 29°58' W 093°51'0 0.0
2018-Jun-13 12:27N 29°58' W 093°51'2 4.8
2018-Jun-13 12:00N 29°59' W 093°53'2 4.9
2018-Jun-13 11:30N 29°59' W 093°56'1 1.4
2018-Jun-13 11:00N 29°60' W 093°55'0 0.5
2018-Jun-13 10:30N 29°60' W 093°55'3 6.9
2018-Jun-13 10:00N 29°58' W 093°51'0 0.6
2018-Jun-13 09:20N 29°58' W 093°51'0 0.9
2018-Jun-13 08:59N 29°58' W 093°51'0 0.1
2018-Jun-13 08:30N 29°58' W 093°51'2 4.1
2018-Jun-13 08:00N 29°59' W 093°53'2 4.5
2018-Jun-13 07:29N 29°59' W 093°56'0 0.1
2018-Jun-13 06:59N 29°59' W 093°56'0 0.0
2018-Jun-13 06:29N 29°59' W 093°56'0 0.0
2018-Jun-13 05:59N 29°59' W 093°56'0 0.0
2018-Jun-13 05:29N 29°59' W 093°56'0 0.0
2018-Jun-13 04:59N 29°59' W 093°56'0 0.0
2018-Jun-13 04:29N 29°59' W 093°56'0 0.0
2018-Jun-13 03:59N 29°59' W 093°56'0 0.0
2018-Jun-13 03:29N 29°59' W 093°56'0 0.0
2018-Jun-13 02:59N 29°59' W 093°56'0 0.0
2018-Jun-13 02:29N 29°59' W 093°56'0 0.0
2018-Jun-13 01:59N 29°59' W 093°56'0 0.0
2018-Jun-13 01:29N 29°59' W 093°56'0 0.0
2018-Jun-13 00:59N 29°59' W 093°56'0 0.0
2018-Jun-13 00:29N 29°59' W 093°56'0 0.0
2018-Jun-12 23:59N 29°59' W 093°56'0 0.0
2018-Jun-12 23:29N 29°59' W 093°56'0 0.0
2018-Jun-12 22:59N 29°59' W 093°56'0 0.0
2018-Jun-12 22:29N 29°59' W 093°56'0 0.0
2018-Jun-12 21:59N 29°59' W 093°56'0 0.0
2018-Jun-12 21:29N 29°59' W 093°56'0 0.0
2018-Jun-12 20:59N 29°59' W 093°56'0 0.0
2018-Jun-12 20:29N 29°59' W 093°56'0 0.0
2018-Jun-12 19:59N 29°59' W 093°56'0 0.0
2018-Jun-12 19:29N 29°59' W 093°56'0 0.0
2018-Jun-12 18:59N 29°59' W 093°56'0 0.0
2018-Jun-12 18:29N 29°59' W 093°56'0 0.0
2018-Jun-12 17:56N 29°59' W 093°56'0 0.0
2018-Jun-12 17:29N 29°59' W 093°56'0 0.0
2018-Jun-12 16:59N 29°59' W 093°56'0 0.0
2018-Jun-12 16:29N 29°59' W 093°56'0 0.0
2018-Jun-12 15:59N 29°59' W 093°56'0 0.0
2018-Jun-12 15:29N 29°59' W 093°56'0 0.0
2018-Jun-12 14:59N 29°59' W 093°56'0 0.0
2018-Jun-12 14:29N 29°59' W 093°56'0 0.0
2018-Jun-12 13:58N 29°59' W 093°56'0 0.0
2018-Jun-12 13:28N 29°59' W 093°56'0 0.0
2018-Jun-12 12:58N 29°59' W 093°56'0 0.0
2018-Jun-12 12:28N 29°59' W 093°56'0 0.0
2018-Jun-12 11:58N 29°59' W 093°56'0 0.0
2018-Jun-12 11:28N 29°59' W 093°56'0 0.3
2018-Jun-12 11:00N 29°59' W 093°56'3 6.5
2018-Jun-12 10:30N 29°59' W 093°52'1 2.6
2018-Jun-12 10:00N 29°58' W 093°51'0 0.0
2018-Jun-12 09:30N 29°58' W 093°51'0 0.0
2018-Jun-12 08:56N 29°58' W 093°51'0 0.2
2018-Jun-12 08:28N 29°58' W 093°51'0 0.1
2018-Jun-12 08:00N 29°58' W 093°51'0 0.5
2018-Jun-12 07:30N 29°58' W 093°51'0 0.0
2018-Jun-12 07:00N 29°58' W 093°51'3 5.3
2018-Jun-12 06:30N 29°59' W 093°54'2 3.8
2018-Jun-12 06:00N 29°59' W 093°56'1 1.7
2018-Jun-12 05:30N 29°59' W 093°55'3 6.8
2018-Jun-12 05:00N 29°58' W 093°51'0 0.8
2018-Jun-12 04:31N 29°58' W 093°51'0 0.1
2018-Jun-12 03:59N 29°58' W 093°51'2 4.7
2018-Jun-12 03:30N 29°59' W 093°53'4 7.6
2018-Jun-12 03:00N 30°00' W 093°57'3 6.8
2018-Jun-12 02:30N 30°01' W 094°01'0 0.7
2018-Jun-12 02:00N 30°01' W 094°02'2 3.6
2018-Jun-12 01:30N 30°01' W 093°60'3 5.5
2018-Jun-12 01:00N 29°60' W 093°57'3 6.3
2018-Jun-12 00:30N 29°59' W 093°53'3 5.1
2018-Jun-12 00:00N 29°59' W 093°50'3 6.4
2018-Jun-11 23:30N 29°60' W 093°47'3 6.1
2018-Jun-11 23:00N 30°02' W 093°44'3 5.5
2018-Jun-11 22:29N 30°05' W 093°43'1 1.5
2018-Jun-11 21:59N 30°05' W 093°44'0 0.0
2018-Jun-11 21:30N 30°05' W 093°44'0 0.0
2018-Jun-11 21:00N 30°05' W 093°44'0 0.0
2018-Jun-11 20:26N 30°05' W 093°44'0 0.0
2018-Jun-11 20:00N 30°05' W 093°44'0 0.0
2018-Jun-11 19:30N 30°05' W 093°44'0 0.0
2018-Jun-11 19:00N 30°05' W 093°44'0 0.0
2018-Jun-11 18:30N 30°05' W 093°44'0 0.0
2018-Jun-11 18:00N 30°05' W 093°44'0 0.0
2018-Jun-11 17:29N 30°05' W 093°44'0 0.0
2018-Jun-11 17:00N 30°05' W 093°44'0 0.0
2018-Jun-11 16:28N 30°05' W 093°44'0 0.2
2018-Jun-11 15:59N 30°05' W 093°44'2 4.6
2018-Jun-11 15:27N 30°03' W 093°44'3 5.7
2018-Jun-11 15:00N 30°00' W 093°46'3 6.0
2018-Jun-11 14:30N 29°59' W 093°49'2 3.5
2018-Jun-11 14:00N 29°58' W 093°51'2 3.8
2018-Jun-11 13:30N 29°59' W 093°53'3 5.0
2018-Jun-11 13:00N 29°59' W 093°56'2 4.9
2018-Jun-11 12:30N 30°01' W 093°58'3 6.1
2018-Jun-11 12:00N 30°01' W 094°01'3 5.5
2018-Jun-11 11:30N 30°04' W 094°03'2 4.1
2018-Jun-11 11:00N 30°05' W 094°05'0 0.0
2018-Jun-11 10:30N 30°05' W 094°05'0 0.0
2018-Jun-11 10:00N 30°05' W 094°05'0 0.0
2018-Jun-11 09:30N 30°05' W 094°05'0 0.0
2018-Jun-11 09:00N 30°05' W 094°05'0 0.0
2018-Jun-11 08:30N 30°05' W 094°05'0 0.0
2018-Jun-11 08:00N 30°05' W 094°05'0 0.0
2018-Jun-11 07:30N 30°05' W 094°05'0 0.0
2018-Jun-11 07:00N 30°05' W 094°05'0 0.0
2018-Jun-11 06:30N 30°05' W 094°05'0 0.0
2018-Jun-11 06:00N 30°05' W 094°05'0 0.0
2018-Jun-11 05:30N 30°05' W 094°05'0 0.0
2018-Jun-11 05:00N 30°05' W 094°05'0 0.0
2018-Jun-11 04:30N 30°05' W 094°05'0 0.0
2018-Jun-11 04:00N 30°05' W 094°05'0 0.0
2018-Jun-11 03:30N 30°05' W 094°05'0 0.0
2018-Jun-11 03:00N 30°05' W 094°05'0 0.0
2018-Jun-11 02:30N 30°05' W 094°05'0 0.0
2018-Jun-11 02:00N 30°05' W 094°05'0 0.0
2018-Jun-11 01:30N 30°05' W 094°05'0 0.0
2018-Jun-11 01:00N 30°05' W 094°05'0 0.0
2018-Jun-11 00:30N 30°05' W 094°05'0 0.0
2018-Jun-11 00:00N 30°05' W 094°05'0 0.0
2018-Jun-10 23:30N 30°05' W 094°05'0 0.0
2018-Jun-10 23:00N 30°05' W 094°05'0 0.0
2018-Jun-10 22:30N 30°05' W 094°05'0 0.0
2018-Jun-10 22:00N 30°05' W 094°05'0 0.0
2018-Jun-10 21:30N 30°05' W 094°05'0 0.0
2018-Jun-10 21:00N 30°05' W 094°05'0 0.0
2018-Jun-10 20:30N 30°05' W 094°05'0 0.0
2018-Jun-10 20:00N 30°05' W 094°05'0 0.0
2018-Jun-10 19:30N 30°05' W 094°05'0 0.0
2018-Jun-10 19:00N 30°05' W 094°05'0 0.0
2018-Jun-10 18:30N 30°05' W 094°05'0 0.2
2018-Jun-10 18:00N 30°05' W 094°05'3 5.8
2018-Jun-10 17:30N 30°03' W 094°02'3 5.2
2018-Jun-10 17:00N 30°01' W 094°00'3 5.4
2018-Jun-10 16:30N 30°00' W 093°57'3 5.8
2018-Jun-10 16:00N 29°59' W 093°54'3 5.5
2018-Jun-10 15:30N 29°58' W 093°51'0 0.7
2018-Jun-10 15:00N 29°58' W 093°51'3 5.5
2018-Jun-10 14:30N 29°56' W 093°52'6 6.2
2018-Jun-10 13:30N 29°51' W 093°57'3 5.1
2018-Jun-10 13:00N 29°49' W 093°59'0 0.1
2018-Jun-10 12:30N 29°49' W 093°59'0 0.0
2018-Jun-10 12:00N 29°49' W 093°59'0 0.0
2018-Jun-10 11:30N 29°49' W 093°59'0 0.0
2018-Jun-10 11:00N 29°49' W 093°59'0 0.0
2018-Jun-10 10:30N 29°49' W 093°59'0 0.0
2018-Jun-10 10:00N 29°49' W 093°59'1 1.3
2018-Jun-10 09:30N 29°49' W 093°60'3 5.6
2018-Jun-10 09:00N 29°47' W 094°02'3 5.4
2018-Jun-10 08:30N 29°45' W 094°04'3 5.4
2018-Jun-10 08:00N 29°43' W 094°07'3 5.4
2018-Jun-10 07:30N 29°42' W 094°09'3 5.4
2018-Jun-10 07:00N 29°41' W 094°12'3 5.7
2018-Jun-10 06:30N 29°40' W 094°15'3 5.8
2018-Jun-10 06:00N 29°38' W 094°18'2 4.6
2018-Jun-10 05:30N 29°37' W 094°20'3 5.8
2018-Jun-10 05:00N 29°36' W 094°23'  

Dump ship's entire track history